sensor_id;sensor_type;location;lat;lon;timestamp;P1;durP1;ratioP1;P2;durP2;ratioP2
43248;SDS011;29216;51.248;6.808;2023-04-24T00:00:16;2.28;;;1.60;;
43248;SDS011;29216;51.248;6.808;2023-04-24T00:02:43;2.25;;;1.83;;
43248;SDS011;29216;51.248;6.808;2023-04-24T00:05:13;2.55;;;1.50;;
43248;SDS011;29216;51.248;6.808;2023-04-24T00:07:40;2.35;;;1.50;;
43248;SDS011;29216;51.248;6.808;2023-04-24T00:10:06;1.73;;;1.63;;
43248;SDS011;29216;51.248;6.808;2023-04-24T00:12:32;2.75;;;1.80;;
43248;SDS011;29216;51.248;6.808;2023-04-24T00:14:59;1.88;;;1.77;;
43248;SDS011;29216;51.248;6.808;2023-04-24T00:17:24;3.33;;;1.90;;
43248;SDS011;29216;51.248;6.808;2023-04-24T00:19:50;1.63;;;1.52;;
43248;SDS011;29216;51.248;6.808;2023-04-24T00:22:23;2.47;;;1.83;;
43248;SDS011;29216;51.248;6.808;2023-04-24T00:24:49;1.90;;;1.80;;
43248;SDS011;29216;51.248;6.808;2023-04-24T00:27:15;2.63;;;1.92;;
43248;SDS011;29216;51.248;6.808;2023-04-24T00:29:41;1.90;;;1.80;;
43248;SDS011;29216;51.248;6.808;2023-04-24T00:32:07;2.97;;;2.10;;
43248;SDS011;29216;51.248;6.808;2023-04-24T00:34:33;3.28;;;1.90;;
43248;SDS011;29216;51.248;6.808;2023-04-24T00:36:59;2.10;;;1.90;;
43248;SDS011;29216;51.248;6.808;2023-04-24T00:39:25;2.08;;;1.77;;
43248;SDS011;29216;51.248;6.808;2023-04-24T00:41:51;2.63;;;2.42;;
43248;SDS011;29216;51.248;6.808;2023-04-24T00:44:17;1.77;;;1.67;;
43248;SDS011;29216;51.248;6.808;2023-04-24T00:46:43;3.90;;;2.08;;
43248;SDS011;29216;51.248;6.808;2023-04-24T00:49:09;3.03;;;1.90;;
43248;SDS011;29216;51.248;6.808;2023-04-24T00:51:35;3.30;;;2.10;;
43248;SDS011;29216;51.248;6.808;2023-04-24T00:54:01;2.75;;;2.08;;
43248;SDS011;29216;51.248;6.808;2023-04-24T00:56:27;2.20;;;2.00;;
43248;SDS011;29216;51.248;6.808;2023-04-24T00:58:54;3.05;;;1.90;;
43248;SDS011;29216;51.248;6.808;2023-04-24T01:01:20;2.13;;;2.00;;
43248;SDS011;29216;51.248;6.808;2023-04-24T01:03:47;3.83;;;2.00;;
43248;SDS011;29216;51.248;6.808;2023-04-24T01:06:15;2.33;;;2.05;;
43248;SDS011;29216;51.248;6.808;2023-04-24T01:08:41;2.22;;;2.00;;
43248;SDS011;29216;51.248;6.808;2023-04-24T01:11:07;4.13;;;2.15;;
43248;SDS011;29216;51.248;6.808;2023-04-24T01:13:33;3.33;;;2.17;;
43248;SDS011;29216;51.248;6.808;2023-04-24T01:15:59;3.80;;;2.30;;
43248;SDS011;29216;51.248;6.808;2023-04-24T01:18:26;3.53;;;2.30;;
43248;SDS011;29216;51.248;6.808;2023-04-24T01:20:59;3.15;;;2.30;;
43248;SDS011;29216;51.248;6.808;2023-04-24T01:23:25;3.33;;;2.42;;
43248;SDS011;29216;51.248;6.808;2023-04-24T01:25:51;3.92;;;2.83;;
43248;SDS011;29216;51.248;6.808;2023-04-24T01:28:18;5.45;;;3.22;;
43248;SDS011;29216;51.248;6.808;2023-04-24T01:30:44;4.68;;;3.33;;
43248;SDS011;29216;51.248;6.808;2023-04-24T01:33:10;4.68;;;3.50;;
43248;SDS011;29216;51.248;6.808;2023-04-24T01:35:37;6.40;;;3.50;;
43248;SDS011;29216;51.248;6.808;2023-04-24T01:38:03;9.77;;;3.90;;
43248;SDS011;29216;51.248;6.808;2023-04-24T01:40:30;7.40;;;4.15;;
43248;SDS011;29216;51.248;6.808;2023-04-24T01:42:57;8.63;;;4.53;;
43248;SDS011;29216;51.248;6.808;2023-04-24T01:45:23;7.32;;;4.18;;
43248;SDS011;29216;51.248;6.808;2023-04-24T01:47:49;5.32;;;4.70;;
43248;SDS011;29216;51.248;6.808;2023-04-24T01:50:15;8.93;;;4.75;;
43248;SDS011;29216;51.248;6.808;2023-04-24T01:52:41;8.15;;;5.10;;
43248;SDS011;29216;51.248;6.808;2023-04-24T01:55:07;10.52;;;5.22;;
43248;SDS011;29216;51.248;6.808;2023-04-24T01:57:33;9.45;;;5.72;;
43248;SDS011;29216;51.248;6.808;2023-04-24T02:00:00;10.27;;;5.63;;
43248;SDS011;29216;51.248;6.808;2023-04-24T02:02:26;10.27;;;5.82;;
43248;SDS011;29216;51.248;6.808;2023-04-24T02:04:56;6.80;;;5.35;;
43248;SDS011;29216;51.248;6.808;2023-04-24T02:07:22;8.38;;;6.82;;
43248;SDS011;29216;51.248;6.808;2023-04-24T02:09:48;8.25;;;5.93;;
43248;SDS011;29216;51.248;6.808;2023-04-24T02:12:14;9.18;;;5.90;;
43248;SDS011;29216;51.248;6.808;2023-04-24T02:14:42;8.98;;;6.38;;
43248;SDS011;29216;51.248;6.808;2023-04-24T02:17:08;8.48;;;6.10;;
43248;SDS011;29216;51.248;6.808;2023-04-24T02:19:34;10.43;;;6.22;;
43248;SDS011;29216;51.248;6.808;2023-04-24T02:22:00;12.10;;;6.93;;
43248;SDS011;29216;51.248;6.808;2023-04-24T02:24:26;10.15;;;7.13;;
43248;SDS011;29216;51.248;6.808;2023-04-24T02:26:52;13.25;;;7.00;;
43248;SDS011;29216;51.248;6.808;2023-04-24T02:29:18;7.28;;;5.60;;
43248;SDS011;29216;51.248;6.808;2023-04-24T02:31:44;9.20;;;6.15;;
43248;SDS011;29216;51.248;6.808;2023-04-24T02:34:10;11.75;;;6.43;;
43248;SDS011;29216;51.248;6.808;2023-04-24T02:36:36;10.60;;;6.85;;
43248;SDS011;29216;51.248;6.808;2023-04-24T02:39:02;12.75;;;6.65;;
43248;SDS011;29216;51.248;6.808;2023-04-24T02:41:28;12.90;;;7.20;;
43248;SDS011;29216;51.248;6.808;2023-04-24T02:43:57;8.95;;;5.95;;
43248;SDS011;29216;51.248;6.808;2023-04-24T02:46:23;9.63;;;6.60;;
43248;SDS011;29216;51.248;6.808;2023-04-24T02:48:49;10.45;;;6.75;;
43248;SDS011;29216;51.248;6.808;2023-04-24T02:51:15;8.90;;;6.60;;
43248;SDS011;29216;51.248;6.808;2023-04-24T02:53:41;12.20;;;6.97;;
43248;SDS011;29216;51.248;6.808;2023-04-24T02:56:10;13.25;;;6.72;;
43248;SDS011;29216;51.248;6.808;2023-04-24T02:58:37;11.25;;;7.38;;
43248;SDS011;29216;51.248;6.808;2023-04-24T03:01:03;11.77;;;7.38;;
43248;SDS011;29216;51.248;6.808;2023-04-24T03:03:30;12.05;;;7.53;;
43248;SDS011;29216;51.248;6.808;2023-04-24T03:05:56;13.40;;;7.47;;
43248;SDS011;29216;51.248;6.808;2023-04-24T03:08:22;14.82;;;8.27;;
43248;SDS011;29216;51.248;6.808;2023-04-24T03:10:48;13.93;;;8.63;;
43248;SDS011;29216;51.248;6.808;2023-04-24T03:13:15;13.40;;;7.90;;
43248;SDS011;29216;51.248;6.808;2023-04-24T03:15:41;11.40;;;7.38;;
43248;SDS011;29216;51.248;6.808;2023-04-24T03:18:07;12.05;;;7.30;;
43248;SDS011;29216;51.248;6.808;2023-04-24T03:20:34;9.50;;;6.72;;
43248;SDS011;29216;51.248;6.808;2023-04-24T03:23:01;13.90;;;7.85;;
43248;SDS011;29216;51.248;6.808;2023-04-24T03:25:27;12.82;;;7.07;;
43248;SDS011;29216;51.248;6.808;2023-04-24T03:27:53;11.10;;;7.03;;
43248;SDS011;29216;51.248;6.808;2023-04-24T03:30:20;14.18;;;7.07;;
43248;SDS011;29216;51.248;6.808;2023-04-24T03:32:45;10.68;;;6.68;;
43248;SDS011;29216;51.248;6.808;2023-04-24T03:35:11;12.88;;;7.28;;
43248;SDS011;29216;51.248;6.808;2023-04-24T03:37:37;10.82;;;6.10;;
43248;SDS011;29216;51.248;6.808;2023-04-24T03:40:04;13.75;;;7.07;;
43248;SDS011;29216;51.248;6.808;2023-04-24T03:42:31;12.52;;;6.78;;
43248;SDS011;29216;51.248;6.808;2023-04-24T03:44:57;13.55;;;7.00;;
43248;SDS011;29216;51.248;6.808;2023-04-24T03:47:23;11.57;;;6.68;;
43248;SDS011;29216;51.248;6.808;2023-04-24T03:49:49;11.40;;;6.70;;
43248;SDS011;29216;51.248;6.808;2023-04-24T03:52:15;9.85;;;6.25;;
43248;SDS011;29216;51.248;6.808;2023-04-24T03:54:41;13.82;;;6.88;;
43248;SDS011;29216;51.248;6.808;2023-04-24T03:57:07;16.55;;;6.03;;
43248;SDS011;29216;51.248;6.808;2023-04-24T03:59:33;8.18;;;5.97;;
43248;SDS011;29216;51.248;6.808;2023-04-24T04:01:59;9.65;;;6.07;;
43248;SDS011;29216;51.248;6.808;2023-04-24T04:04:25;12.05;;;6.78;;
43248;SDS011;29216;51.248;6.808;2023-04-24T04:06:51;8.05;;;6.35;;
43248;SDS011;29216;51.248;6.808;2023-04-24T04:09:18;11.15;;;6.93;;
43248;SDS011;29216;51.248;6.808;2023-04-24T04:11:44;9.57;;;6.20;;
43248;SDS011;29216;51.248;6.808;2023-04-24T04:14:10;11.43;;;7.13;;
43248;SDS011;29216;51.248;6.808;2023-04-24T04:16:36;10.63;;;7.13;;
43248;SDS011;29216;51.248;6.808;2023-04-24T04:19:02;11.48;;;7.18;;
43248;SDS011;29216;51.248;6.808;2023-04-24T04:21:28;12.07;;;7.00;;
43248;SDS011;29216;51.248;6.808;2023-04-24T04:23:56;11.40;;;7.55;;
43248;SDS011;29216;51.248;6.808;2023-04-24T04:26:22;11.00;;;6.60;;
43248;SDS011;29216;51.248;6.808;2023-04-24T04:28:51;12.32;;;7.60;;
43248;SDS011;29216;51.248;6.808;2023-04-24T04:31:16;12.18;;;6.57;;
43248;SDS011;29216;51.248;6.808;2023-04-24T04:33:42;12.55;;;7.28;;
43248;SDS011;29216;51.248;6.808;2023-04-24T04:36:08;7.88;;;6.50;;
43248;SDS011;29216;51.248;6.808;2023-04-24T04:38:34;9.55;;;6.60;;
43248;SDS011;29216;51.248;6.808;2023-04-24T04:41:01;7.97;;;5.53;;
43248;SDS011;29216;51.248;6.808;2023-04-24T04:43:27;10.55;;;6.70;;
43248;SDS011;29216;51.248;6.808;2023-04-24T04:45:54;11.52;;;6.40;;
43248;SDS011;29216;51.248;6.808;2023-04-24T04:48:21;9.70;;;6.15;;
43248;SDS011;29216;51.248;6.808;2023-04-24T04:50:47;10.50;;;6.63;;
43248;SDS011;29216;51.248;6.808;2023-04-24T04:53:13;8.30;;;5.60;;
43248;SDS011;29216;51.248;6.808;2023-04-24T04:55:39;11.25;;;6.80;;
43248;SDS011;29216;51.248;6.808;2023-04-24T04:58:05;10.70;;;6.63;;
43248;SDS011;29216;51.248;6.808;2023-04-24T05:00:31;12.60;;;8.15;;
43248;SDS011;29216;51.248;6.808;2023-04-24T05:03:00;12.90;;;7.18;;
43248;SDS011;29216;51.248;6.808;2023-04-24T05:05:26;11.77;;;6.90;;
43248;SDS011;29216;51.248;6.808;2023-04-24T05:07:52;14.18;;;7.93;;
43248;SDS011;29216;51.248;6.808;2023-04-24T05:10:18;11.57;;;7.85;;
43248;SDS011;29216;51.248;6.808;2023-04-24T05:12:44;10.45;;;7.78;;
43248;SDS011;29216;51.248;6.808;2023-04-24T05:15:10;11.55;;;8.35;;
43248;SDS011;29216;51.248;6.808;2023-04-24T05:17:36;11.73;;;7.72;;
43248;SDS011;29216;51.248;6.808;2023-04-24T05:20:04;13.07;;;7.43;;
43248;SDS011;29216;51.248;6.808;2023-04-24T05:22:31;11.00;;;7.65;;
43248;SDS011;29216;51.248;6.808;2023-04-24T05:24:57;10.60;;;7.10;;
43248;SDS011;29216;51.248;6.808;2023-04-24T05:27:23;10.68;;;7.10;;
43248;SDS011;29216;51.248;6.808;2023-04-24T05:29:50;11.13;;;7.38;;
43248;SDS011;29216;51.248;6.808;2023-04-24T05:32:16;11.52;;;7.28;;
43248;SDS011;29216;51.248;6.808;2023-04-24T05:34:42;9.25;;;7.22;;
43248;SDS011;29216;51.248;6.808;2023-04-24T05:37:08;9.55;;;6.78;;
43248;SDS011;29216;51.248;6.808;2023-04-24T05:39:35;9.75;;;7.15;;
43248;SDS011;29216;51.248;6.808;2023-04-24T05:42:01;11.60;;;7.28;;
43248;SDS011;29216;51.248;6.808;2023-04-24T05:44:28;9.70;;;7.78;;
43248;SDS011;29216;51.248;6.808;2023-04-24T05:46:54;12.65;;;7.45;;
43248;SDS011;29216;51.248;6.808;2023-04-24T05:49:20;11.15;;;7.30;;
43248;SDS011;29216;51.248;6.808;2023-04-24T05:51:46;10.02;;;7.15;;
43248;SDS011;29216;51.248;6.808;2023-04-24T05:54:12;9.93;;;7.35;;
43248;SDS011;29216;51.248;6.808;2023-04-24T05:56:39;9.77;;;6.40;;
43248;SDS011;29216;51.248;6.808;2023-04-24T05:59:05;10.02;;;7.68;;
43248;SDS011;29216;51.248;6.808;2023-04-24T06:01:31;9.65;;;6.43;;
43248;SDS011;29216;51.248;6.808;2023-04-24T06:03:57;10.00;;;6.65;;
43248;SDS011;29216;51.248;6.808;2023-04-24T06:06:23;9.68;;;7.38;;
43248;SDS011;29216;51.248;6.808;2023-04-24T06:08:51;7.75;;;6.53;;
43248;SDS011;29216;51.248;6.808;2023-04-24T06:11:17;10.52;;;7.25;;
43248;SDS011;29216;51.248;6.808;2023-04-24T06:13:43;8.05;;;6.57;;
43248;SDS011;29216;51.248;6.808;2023-04-24T06:16:09;11.93;;;6.55;;
43248;SDS011;29216;51.248;6.808;2023-04-24T06:18:35;13.80;;;6.78;;
43248;SDS011;29216;51.248;6.808;2023-04-24T06:21:01;10.43;;;6.65;;
43248;SDS011;29216;51.248;6.808;2023-04-24T06:23:27;10.70;;;6.65;;
43248;SDS011;29216;51.248;6.808;2023-04-24T06:25:54;7.88;;;7.07;;
43248;SDS011;29216;51.248;6.808;2023-04-24T06:28:20;7.70;;;5.50;;
43248;SDS011;29216;51.248;6.808;2023-04-24T06:30:46;9.25;;;6.00;;
43248;SDS011;29216;51.248;6.808;2023-04-24T06:33:12;7.72;;;5.72;;
43248;SDS011;29216;51.248;6.808;2023-04-24T06:35:38;9.00;;;6.05;;
43248;SDS011;29216;51.248;6.808;2023-04-24T06:38:04;9.32;;;5.93;;
43248;SDS011;29216;51.248;6.808;2023-04-24T06:40:30;7.57;;;5.35;;
43248;SDS011;29216;51.248;6.808;2023-04-24T06:42:56;8.13;;;5.22;;
43248;SDS011;29216;51.248;6.808;2023-04-24T06:45:25;7.22;;;5.22;;
43248;SDS011;29216;51.248;6.808;2023-04-24T06:47:51;7.70;;;5.22;;
43248;SDS011;29216;51.248;6.808;2023-04-24T06:50:17;7.97;;;5.38;;
43248;SDS011;29216;51.248;6.808;2023-04-24T06:52:43;7.78;;;5.53;;
43248;SDS011;29216;51.248;6.808;2023-04-24T06:55:09;8.10;;;5.22;;
43248;SDS011;29216;51.248;6.808;2023-04-24T06:57:36;8.82;;;5.45;;
43248;SDS011;29216;51.248;6.808;2023-04-24T07:00:03;7.57;;;4.72;;
43248;SDS011;29216;51.248;6.808;2023-04-24T07:02:30;6.10;;;4.80;;
43248;SDS011;29216;51.248;6.808;2023-04-24T07:04:56;7.93;;;5.22;;
43248;SDS011;29216;51.248;6.808;2023-04-24T07:07:22;6.45;;;4.88;;
43248;SDS011;29216;51.248;6.808;2023-04-24T07:09:48;6.47;;;4.68;;
43248;SDS011;29216;51.248;6.808;2023-04-24T07:12:15;7.70;;;4.53;;
43248;SDS011;29216;51.248;6.808;2023-04-24T07:14:42;5.45;;;4.40;;
43248;SDS011;29216;51.248;6.808;2023-04-24T07:17:08;5.07;;;4.15;;
43248;SDS011;29216;51.248;6.808;2023-04-24T07:19:34;6.82;;;4.03;;
43248;SDS011;29216;51.248;6.808;2023-04-24T07:22:00;8.05;;;4.07;;
43248;SDS011;29216;51.248;6.808;2023-04-24T07:24:28;8.07;;;4.10;;
43248;SDS011;29216;51.248;6.808;2023-04-24T07:26:54;5.40;;;3.50;;
43248;SDS011;29216;51.248;6.808;2023-04-24T07:29:20;6.53;;;3.10;;
43248;SDS011;29216;51.248;6.808;2023-04-24T07:31:46;5.55;;;3.10;;
43248;SDS011;29216;51.248;6.808;2023-04-24T07:34:12;3.75;;;2.70;;
43248;SDS011;29216;51.248;6.808;2023-04-24T07:36:38;3.63;;;3.15;;
43248;SDS011;29216;51.248;6.808;2023-04-24T07:39:05;4.60;;;3.42;;
43248;SDS011;29216;51.248;6.808;2023-04-24T07:41:31;5.18;;;2.60;;
43248;SDS011;29216;51.248;6.808;2023-04-24T07:43:57;2.47;;;2.10;;
43248;SDS011;29216;51.248;6.808;2023-04-24T07:46:23;1.63;;;1.52;;
43248;SDS011;29216;51.248;6.808;2023-04-24T07:48:50;1.63;;;1.52;;
43248;SDS011;29216;51.248;6.808;2023-04-24T07:51:16;1.40;;;1.30;;
43248;SDS011;29216;51.248;6.808;2023-04-24T07:53:42;1.33;;;1.33;;
43248;SDS011;29216;51.248;6.808;2023-04-24T07:56:08;2.03;;;1.50;;
43248;SDS011;29216;51.248;6.808;2023-04-24T07:58:34;1.67;;;1.58;;
43248;SDS011;29216;51.248;6.808;2023-04-24T08:01:00;2.10;;;1.48;;
43248;SDS011;29216;51.248;6.808;2023-04-24T08:03:26;4.40;;;1.70;;
43248;SDS011;29216;51.248;6.808;2023-04-24T08:05:52;1.85;;;1.55;;
43248;SDS011;29216;51.248;6.808;2023-04-24T08:08:21;3.97;;;1.77;;
43248;SDS011;29216;51.248;6.808;2023-04-24T08:10:47;1.50;;;1.45;;
43248;SDS011;29216;51.248;6.808;2023-04-24T08:13:13;1.75;;;1.65;;
43248;SDS011;29216;51.248;6.808;2023-04-24T08:15:39;1.30;;;1.30;;
43248;SDS011;29216;51.248;6.808;2023-04-24T08:18:05;2.20;;;1.50;;
43248;SDS011;29216;51.248;6.808;2023-04-24T08:20:31;1.92;;;1.40;;
43248;SDS011;29216;51.248;6.808;2023-04-24T08:22:57;2.15;;;1.80;;
43248;SDS011;29216;51.248;6.808;2023-04-24T08:25:23;2.17;;;1.80;;
43248;SDS011;29216;51.248;6.808;2023-04-24T08:27:50;4.38;;;2.10;;
43248;SDS011;29216;51.248;6.808;2023-04-24T08:30:16;5.20;;;2.30;;
43248;SDS011;29216;51.248;6.808;2023-04-24T08:32:42;3.30;;;2.28;;
43248;SDS011;29216;51.248;6.808;2023-04-24T08:35:08;2.88;;;2.30;;
43248;SDS011;29216;51.248;6.808;2023-04-24T08:37:34;1.75;;;1.65;;
43248;SDS011;29216;51.248;6.808;2023-04-24T08:40:01;2.35;;;1.77;;
43248;SDS011;29216;51.248;6.808;2023-04-24T08:42:28;1.90;;;1.70;;
43248;SDS011;29216;51.248;6.808;2023-04-24T08:44:54;1.98;;;1.77;;
43248;SDS011;29216;51.248;6.808;2023-04-24T08:47:20;2.85;;;2.00;;
43248;SDS011;29216;51.248;6.808;2023-04-24T08:49:46;2.17;;;1.98;;
43248;SDS011;29216;51.248;6.808;2023-04-24T08:52:13;2.42;;;1.83;;
43248;SDS011;29216;51.248;6.808;2023-04-24T08:54:39;2.30;;;2.10;;
43248;SDS011;29216;51.248;6.808;2023-04-24T08:57:08;2.30;;;2.10;;
43248;SDS011;29216;51.248;6.808;2023-04-24T08:59:36;3.20;;;2.30;;
43248;SDS011;29216;51.248;6.808;2023-04-24T09:02:02;3.92;;;3.20;;
43248;SDS011;29216;51.248;6.808;2023-04-24T09:04:29;4.60;;;3.55;;
43248;SDS011;29216;51.248;6.808;2023-04-24T09:06:57;4.30;;;3.42;;
43248;SDS011;29216;51.248;6.808;2023-04-24T09:09:23;4.57;;;3.42;;
43248;SDS011;29216;51.248;6.808;2023-04-24T09:11:50;5.65;;;3.35;;
43248;SDS011;29216;51.248;6.808;2023-04-24T09:14:18;4.97;;;2.88;;
43248;SDS011;29216;51.248;6.808;2023-04-24T09:16:45;5.15;;;3.15;;
43248;SDS011;29216;51.248;6.808;2023-04-24T09:19:11;5.50;;;3.00;;
43248;SDS011;29216;51.248;6.808;2023-04-24T09:21:37;5.07;;;3.55;;
43248;SDS011;29216;51.248;6.808;2023-04-24T09:24:05;5.60;;;3.70;;
43248;SDS011;29216;51.248;6.808;2023-04-24T09:26:33;3.97;;;3.10;;
43248;SDS011;29216;51.248;6.808;2023-04-24T09:29:00;6.60;;;4.22;;
43248;SDS011;29216;51.248;6.808;2023-04-24T09:31:29;6.65;;;4.05;;
43248;SDS011;29216;51.248;6.808;2023-04-24T09:36:31;4.75;;;3.38;;
43248;SDS011;29216;51.248;6.808;2023-04-24T09:39:04;4.55;;;3.65;;
43248;SDS011;29216;51.248;6.808;2023-04-24T09:41:31;6.65;;;4.53;;
43248;SDS011;29216;51.248;6.808;2023-04-24T09:44:01;6.63;;;4.55;;
43248;SDS011;29216;51.248;6.808;2023-04-24T09:46:36;6.18;;;4.47;;
43248;SDS011;29216;51.248;6.808;2023-04-24T09:49:08;8.88;;;4.47;;
43248;SDS011;29216;51.248;6.808;2023-04-24T09:51:36;9.27;;;5.20;;
43248;SDS011;29216;51.248;6.808;2023-04-24T09:54:03;7.90;;;4.35;;
43248;SDS011;29216;51.248;6.808;2023-04-24T09:56:32;7.85;;;5.05;;
43248;SDS011;29216;51.248;6.808;2023-04-24T09:59:05;9.20;;;4.68;;
43248;SDS011;29216;51.248;6.808;2023-04-24T10:01:32;12.38;;;5.80;;
43248;SDS011;29216;51.248;6.808;2023-04-24T10:03:58;9.13;;;5.60;;
43248;SDS011;29216;51.248;6.808;2023-04-24T10:06:34;11.00;;;4.97;;
43248;SDS011;29216;51.248;6.808;2023-04-24T10:09:00;10.45;;;5.22;;
43248;SDS011;29216;51.248;6.808;2023-04-24T10:11:29;8.82;;;5.15;;
43248;SDS011;29216;51.248;6.808;2023-04-24T10:13:56;10.38;;;5.35;;
43248;SDS011;29216;51.248;6.808;2023-04-24T10:16:22;8.38;;;5.38;;
43248;SDS011;29216;51.248;6.808;2023-04-24T10:18:48;8.82;;;5.60;;
43248;SDS011;29216;51.248;6.808;2023-04-24T10:21:15;13.25;;;6.20;;
43248;SDS011;29216;51.248;6.808;2023-04-24T10:23:42;8.48;;;6.13;;
43248;SDS011;29216;51.248;6.808;2023-04-24T10:26:08;7.70;;;5.35;;
43248;SDS011;29216;51.248;6.808;2023-04-24T10:28:36;12.38;;;5.68;;
43248;SDS011;29216;51.248;6.808;2023-04-24T10:31:02;8.68;;;5.85;;
43248;SDS011;29216;51.248;6.808;2023-04-24T10:33:29;10.68;;;6.38;;
43248;SDS011;29216;51.248;6.808;2023-04-24T10:35:55;14.02;;;6.68;;
43248;SDS011;29216;51.248;6.808;2023-04-24T10:38:24;9.82;;;6.10;;
43248;SDS011;29216;51.248;6.808;2023-04-24T10:40:51;10.40;;;5.10;;
43248;SDS011;29216;51.248;6.808;2023-04-24T10:43:23;9.95;;;5.30;;
43248;SDS011;29216;51.248;6.808;2023-04-24T10:46:01;8.00;;;4.63;;
43248;SDS011;29216;51.248;6.808;2023-04-24T10:48:28;9.70;;;4.30;;
43248;SDS011;29216;51.248;6.808;2023-04-24T10:50:57;8.75;;;4.40;;
43248;SDS011;29216;51.248;6.808;2023-04-24T10:53:24;11.77;;;4.70;;
43248;SDS011;29216;51.248;6.808;2023-04-24T10:56:05;7.88;;;4.70;;
43248;SDS011;29216;51.248;6.808;2023-04-24T10:58:41;9.45;;;4.78;;
43248;SDS011;29216;51.248;6.808;2023-04-24T11:01:11;13.75;;;5.65;;
43248;SDS011;29216;51.248;6.808;2023-04-24T11:03:54;12.32;;;6.13;;
43248;SDS011;29216;51.248;6.808;2023-04-24T11:06:28;12.73;;;5.32;;
43248;SDS011;29216;51.248;6.808;2023-04-24T11:08:58;14.63;;;6.57;;
43248;SDS011;29216;51.248;6.808;2023-04-24T11:11:28;10.07;;;5.38;;
43248;SDS011;29216;51.248;6.808;2023-04-24T11:18:50;10.40;;;4.60;;
43248;SDS011;29216;51.248;6.808;2023-04-24T11:21:19;12.90;;;5.65;;
43248;SDS011;29216;51.248;6.808;2023-04-24T11:23:45;9.57;;;4.30;;
43248;SDS011;29216;51.248;6.808;2023-04-24T11:26:18;9.95;;;3.90;;
43248;SDS011;29216;51.248;6.808;2023-04-24T11:28:48;11.00;;;3.95;;
43248;SDS011;29216;51.248;6.808;2023-04-24T11:34:05;12.95;;;3.90;;
43248;SDS011;29216;51.248;6.808;2023-04-24T11:36:31;9.27;;;3.58;;
43248;SDS011;29216;51.248;6.808;2023-04-24T11:38:57;9.95;;;3.88;;
43248;SDS011;29216;51.248;6.808;2023-04-24T11:41:23;9.20;;;3.42;;
43248;SDS011;29216;51.248;6.808;2023-04-24T11:43:50;6.47;;;3.30;;
43248;SDS011;29216;51.248;6.808;2023-04-24T11:46:17;8.38;;;3.50;;
43248;SDS011;29216;51.248;6.808;2023-04-24T11:48:46;11.18;;;3.78;;
43248;SDS011;29216;51.248;6.808;2023-04-24T11:51:15;8.55;;;4.30;;
43248;SDS011;29216;51.248;6.808;2023-04-24T11:53:41;8.57;;;3.97;;
43248;SDS011;29216;51.248;6.808;2023-04-24T11:56:08;8.13;;;3.40;;
43248;SDS011;29216;51.248;6.808;2023-04-24T11:58:38;8.13;;;4.25;;
43248;SDS011;29216;51.248;6.808;2023-04-24T12:01:04;9.35;;;3.97;;
43248;SDS011;29216;51.248;6.808;2023-04-24T12:03:30;8.05;;;3.20;;
43248;SDS011;29216;51.248;6.808;2023-04-24T12:06:09;10.40;;;4.28;;
43248;SDS011;29216;51.248;6.808;2023-04-24T12:08:35;11.18;;;3.88;;
43248;SDS011;29216;51.248;6.808;2023-04-24T12:11:02;11.85;;;4.13;;
43248;SDS011;29216;51.248;6.808;2023-04-24T12:13:31;10.73;;;3.30;;
43248;SDS011;29216;51.248;6.808;2023-04-24T12:15:57;7.45;;;2.70;;
43248;SDS011;29216;51.248;6.808;2023-04-24T12:18:24;9.18;;;3.00;;
43248;SDS011;29216;51.248;6.808;2023-04-24T12:20:50;7.80;;;3.15;;
43248;SDS011;29216;51.248;6.808;2023-04-24T12:23:16;6.63;;;3.33;;
43248;SDS011;29216;51.248;6.808;2023-04-24T12:25:42;5.88;;;2.78;;
43248;SDS011;29216;51.248;6.808;2023-04-24T12:28:09;8.20;;;3.13;;
43248;SDS011;29216;51.248;6.808;2023-04-24T12:30:44;9.18;;;2.58;;
43248;SDS011;29216;51.248;6.808;2023-04-24T12:33:17;7.60;;;3.05;;
43248;SDS011;29216;51.248;6.808;2023-04-24T12:35:43;5.70;;;2.60;;
43248;SDS011;29216;51.248;6.808;2023-04-24T12:38:10;6.35;;;2.50;;
43248;SDS011;29216;51.248;6.808;2023-04-24T12:40:40;5.47;;;2.50;;
43248;SDS011;29216;51.248;6.808;2023-04-24T12:43:49;4.55;;;2.00;;
43248;SDS011;29216;51.248;6.808;2023-04-24T12:46:01;6.45;;;2.13;;
43248;SDS011;29216;51.248;6.808;2023-04-24T12:48:28;6.10;;;2.38;;
43248;SDS011;29216;51.248;6.808;2023-04-24T12:50:54;6.85;;;2.17;;
43248;SDS011;29216;51.248;6.808;2023-04-24T12:53:21;6.32;;;2.45;;
43248;SDS011;29216;51.248;6.808;2023-04-24T12:55:47;5.07;;;2.13;;
43248;SDS011;29216;51.248;6.808;2023-04-24T12:58:20;5.43;;;1.95;;
43248;SDS011;29216;51.248;6.808;2023-04-24T13:00:46;5.07;;;1.80;;
43248;SDS011;29216;51.248;6.808;2023-04-24T13:03:12;3.92;;;1.77;;
43248;SDS011;29216;51.248;6.808;2023-04-24T13:05:38;4.95;;;2.05;;
43248;SDS011;29216;51.248;6.808;2023-04-24T13:08:05;5.20;;;2.10;;
43248;SDS011;29216;51.248;6.808;2023-04-24T13:10:31;4.28;;;2.03;;
43248;SDS011;29216;51.248;6.808;2023-04-24T13:12:57;3.03;;;1.67;;
43248;SDS011;29216;51.248;6.808;2023-04-24T13:15:23;4.78;;;2.05;;
43248;SDS011;29216;51.248;6.808;2023-04-24T13:17:50;4.35;;;2.03;;
43248;SDS011;29216;51.248;6.808;2023-04-24T13:20:16;3.83;;;1.90;;
43248;SDS011;29216;51.248;6.808;2023-04-24T13:22:42;3.58;;;1.98;;
43248;SDS011;29216;51.248;6.808;2023-04-24T13:25:08;2.88;;;1.70;;
43248;SDS011;29216;51.248;6.808;2023-04-24T13:27:35;1.85;;;1.42;;
43248;SDS011;29216;51.248;6.808;2023-04-24T13:30:01;2.45;;;1.38;;
43248;SDS011;29216;51.248;6.808;2023-04-24T13:32:27;7.53;;;2.25;;
43248;SDS011;29216;51.248;6.808;2023-04-24T13:34:53;4.43;;;1.70;;
43248;SDS011;29216;51.248;6.808;2023-04-24T13:37:19;2.38;;;1.60;;
43248;SDS011;29216;51.248;6.808;2023-04-24T13:39:46;3.55;;;1.67;;
43248;SDS011;29216;51.248;6.808;2023-04-24T13:42:12;4.50;;;1.58;;
43248;SDS011;29216;51.248;6.808;2023-04-24T13:44:38;3.47;;;1.98;;
43248;SDS011;29216;51.248;6.808;2023-04-24T13:47:04;5.80;;;2.45;;
43248;SDS011;29216;51.248;6.808;2023-04-24T13:49:30;4.55;;;2.15;;
43248;SDS011;29216;51.248;6.808;2023-04-24T13:51:56;5.53;;;1.80;;
43248;SDS011;29216;51.248;6.808;2023-04-24T13:54:22;2.28;;;1.63;;
43248;SDS011;29216;51.248;6.808;2023-04-24T13:56:50;5.38;;;2.03;;
43248;SDS011;29216;51.248;6.808;2023-04-24T13:59:17;8.88;;;2.38;;
43248;SDS011;29216;51.248;6.808;2023-04-24T14:01:42;2.95;;;1.92;;
43248;SDS011;29216;51.248;6.808;2023-04-24T14:04:09;3.25;;;2.25;;
43248;SDS011;29216;51.248;6.808;2023-04-24T14:06:36;5.20;;;2.13;;
43248;SDS011;29216;51.248;6.808;2023-04-24T14:09:02;4.50;;;1.90;;
43248;SDS011;29216;51.248;6.808;2023-04-24T14:11:28;4.22;;;2.20;;
43248;SDS011;29216;51.248;6.808;2023-04-24T14:13:54;3.25;;;1.80;;
43248;SDS011;29216;51.248;6.808;2023-04-24T14:16:23;2.13;;;1.88;;
43248;SDS011;29216;51.248;6.808;2023-04-24T14:18:49;8.45;;;3.33;;
43248;SDS011;29216;51.248;6.808;2023-04-24T14:21:15;3.28;;;1.63;;
43248;SDS011;29216;51.248;6.808;2023-04-24T14:23:41;4.63;;;2.70;;
43248;SDS011;29216;51.248;6.808;2023-04-24T14:26:07;4.95;;;1.73;;
43248;SDS011;29216;51.248;6.808;2023-04-24T14:28:33;2.28;;;1.73;;
43248;SDS011;29216;51.248;6.808;2023-04-24T14:30:59;5.38;;;1.70;;
43248;SDS011;29216;51.248;6.808;2023-04-24T14:33:25;6.70;;;2.30;;
43248;SDS011;29216;51.248;6.808;2023-04-24T14:35:51;2.58;;;2.00;;
43248;SDS011;29216;51.248;6.808;2023-04-24T14:38:17;5.65;;;2.05;;
43248;SDS011;29216;51.248;6.808;2023-04-24T14:40:43;3.80;;;1.83;;
43248;SDS011;29216;51.248;6.808;2023-04-24T14:43:09;4.30;;;1.92;;
43248;SDS011;29216;51.248;6.808;2023-04-24T14:45:36;2.97;;;1.80;;
43248;SDS011;29216;51.248;6.808;2023-04-24T14:48:02;3.85;;;1.80;;
43248;SDS011;29216;51.248;6.808;2023-04-24T14:50:33;1.83;;;1.52;;